Time;durP1;ratioP1;P1;durP2;ratioP2;P2;SDS_P1;SDS_P2;PMS_P1;PMS_P2;Temp;Humidity;BMP_temperature;BMP_pressure;BME280_temperature;BME280_humidity;BME280_pressure;Samples;Min_cycle;Max_cycle;Signal;HPM_P1;HPM_P2
2021/08/29 00:03:53;;;;;;;0.25;0.25;;;;;;;13.14;88.86;100698.06;8602479;34;20200;-72
2021/08/29 00:08:56;;;;;;;0.70;0.70;;;;;;;13.13;89.06;100697.16;8602031;34;20671;-72
2021/08/29 00:14:00;;;;;;;0.32;0.32;;;;;;;13.08;88.99;100690.47;8602682;34;20275;-72
2021/08/29 00:19:04;;;;;;;1.88;1.77;;;;;;;13.04;89.03;100688.03;8602199;34;20908;-72
2021/08/29 00:24:07;;;;;;;0.80;0.80;;;;;;;13.01;88.88;100688.31;8601843;34;20452;-72
2021/08/29 00:29:11;;;;;;;0.95;0.73;;;;;;;13.00;88.98;100680.34;8602590;34;22095;-72
2021/08/29 00:34:14;;;;;;;0.60;0.60;;;;;;;13.01;89.06;100679.38;8601897;34;20288;-72
2021/08/29 00:39:18;;;;;;;0.43;0.43;;;;;;;12.95;89.25;100678.06;8577526;34;20157;-72
2021/08/29 00:44:23;;;;;;;0.95;0.93;;;;;;;13.06;88.96;100685.22;8577626;34;20251;-72
2021/08/29 00:49:26;;;;;;;1.15;1.15;;;;;;;13.00;89.05;100678.53;8577443;34;20138;-72
2021/08/29 00:54:30;;;;;;;1.65;1.15;;;;;;;13.04;89.08;100676.41;8577430;34;20281;-72
2021/08/29 00:59:38;;;;;;;1.05;0.85;;;;;;;13.12;89.31;100670.34;8577849;34;20465;-72
2021/08/29 01:04:56;;;;;;;1.13;1.13;;;;;;;13.03;88.99;100669.31;8577039;34;20189;-72
2021/08/29 01:10:05;;;;;;;1.77;0.70;;;;;;;13.02;90.04;100665.75;8577147;34;20188;-73
2021/08/29 01:15:30;;;;;;;1.90;0.88;;;;;;;13.01;89.42;100661.34;8576936;34;20239;-72
2021/08/29 01:20:46;;;;;;;1.60;1.50;;;;;;;12.94;89.54;100660.16;8577316;34;20169;-73
2021/08/29 01:25:57;;;;;;;1.33;1.10;;;;;;;12.87;89.56;100650.91;8601077;34;20188;-72
2021/08/29 01:31:03;;;;;;;1.88;0.50;;;;;;;12.84;89.67;100648.50;8600802;34;20201;-73
2021/08/29 01:36:08;;;;;;;4.20;0.98;;;;;;;12.87;89.61;100655.47;8576162;34;20189;-73
2021/08/29 01:41:16;;;;;;;1.53;1.43;;;;;;;12.95;89.91;100650.25;8576149;34;21140;-72
2021/08/29 01:46:21;;;;;;;0.57;0.52;;;;;;;12.97;89.72;100645.56;8575745;34;20195;-73
2021/08/29 01:51:38;;;;;;;0.63;0.63;;;;;;;12.88;89.86;100647.22;8576460;34;20188;-73
2021/08/29 01:57:00;;;;;;;1.85;1.70;;;;;;;12.92;89.91;100637.88;8576832;34;20145;-73
2021/08/29 02:02:06;;;;;;;1.25;1.17;;;;;;;12.90;89.74;100641.72;8576804;34;20345;-73
2021/08/29 02:07:25;;;;;;;0.52;0.52;;;;;;;12.91;89.90;100635.31;8601322;34;20507;-73
2021/08/29 02:12:47;;;;;;;1.20;1.10;;;;;;;12.86;89.90;100634.84;8577340;34;20189;-73
2021/08/29 02:17:55;;;;;;;1.70;1.50;;;;;;;12.86;90.14;100629.47;8576656;34;20173;-73
2021/08/29 02:22:59;;;;;;;0.82;0.82;;;;;;;12.93;89.88;100625.25;8601667;34;20185;-72
2021/08/29 02:28:03;;;;;;;3.80;0.80;;;;;;;12.90;89.94;100622.84;8576279;34;20157;-73
2021/08/29 02:33:07;;;;;;;1.52;1.27;;;;;;;12.86;89.99;100618.69;8576793;34;20199;-73
2021/08/29 02:38:12;;;;;;;0.60;0.55;;;;;;;12.94;89.92;100621.56;8574890;34;20623;-72
2021/08/29 02:43:16;;;;;;;7.50;4.85;;;;;;;13.01;90.01;100618.19;8575182;34;20209;-73
2021/08/29 02:48:24;;;;;;;10.70;7.68;;;;;;;12.81;90.22;100616.41;8574488;34;20173;-72
2021/08/29 02:53:28;;;;;;;10.88;7.60;;;;;;;12.83;89.98;100615.28;8574526;34;20216;-73
2021/08/29 02:58:34;;;;;;;16.00;7.80;;;;;;;12.92;90.31;100610.94;8574446;34;20169;-73
2021/08/29 03:03:53;;;;;;;12.20;7.78;;;;;;;13.08;89.89;100606.88;8574880;34;21080;-73
2021/08/29 03:08:59;;;;;;;10.63;7.13;;;;;;;13.02;89.92;100609.13;8574633;34;20240;-73
2021/08/29 03:14:04;;;;;;;10.90;7.50;;;;;;;13.02;89.97;100598.31;8574095;34;20231;-72
2021/08/29 03:19:09;;;;;;;12.68;7.85;;;;;;;13.07;89.61;100595.22;8574167;34;20177;-73
2021/08/29 03:24:22;;;;;;;12.63;7.75;;;;;;;13.01;89.99;100603.88;8573917;34;20229;-73
2021/08/29 03:29:26;;;;;;;14.05;7.93;;;;;;;12.99;89.77;100595.91;8574269;34;20165;-72
2021/08/29 03:34:32;;;;;;;13.88;8.25;;;;;;;12.94;89.84;100598.16;8573338;34;20169;-73
2021/08/29 03:39:35;;;;;;;12.70;8.50;;;;;;;13.00;90.04;100588.66;8574448;34;20182;-72
2021/08/29 03:44:40;;;;;;;14.57;8.50;;;;;;;13.07;90.18;100586.28;8575069;34;20157;-72
2021/08/29 03:49:45;;;;;;;12.85;8.93;;;;;;;12.98;89.94;100585.28;8573628;34;20606;-73
2021/08/29 03:54:54;;;;;;;16.80;10.27;;;;;;;12.95;90.01;100581.00;8576704;34;20185;-73
2021/08/29 03:59:58;;;;;;;16.23;9.40;;;;;;;13.01;89.66;100580.44;8602487;34;20789;-73
2021/08/29 04:05:03;;;;;;;14.52;10.10;;;;;;;12.93;89.79;100569.50;8577972;34;20192;-73
2021/08/29 04:10:09;;;;;;;15.65;9.52;;;;;;;13.00;89.76;100573.38;8579302;34;20479;-73
2021/08/29 04:15:19;;;;;;;14.40;9.57;;;;;;;12.91;89.94;100574.16;8578919;34;20274;-73
2021/08/29 04:20:24;;;;;;;16.30;10.10;;;;;;;12.99;90.09;100577.03;8578804;34;20193;-72
2021/08/29 04:25:29;;;;;;;16.58;10.98;;;;;;;12.99;90.33;100577.03;8578268;34;20609;-73
2021/08/29 04:30:33;;;;;;;13.48;9.00;;;;;;;13.02;90.10;100578.59;8601822;34;21096;-72
2021/08/29 04:35:38;;;;;;;13.65;9.60;;;;;;;13.00;90.07;100584.16;8602076;34;20439;-72
2021/08/29 04:40:41;;;;;;;15.73;10.30;;;;;;;13.04;89.91;100582.03;8577682;34;20196;-72
2021/08/29 04:45:44;;;;;;;13.68;9.05;;;;;;;12.99;89.97;100582.41;8577911;34;20439;-72
2021/08/29 04:50:53;;;;;;;12.63;8.63;;;;;;;13.01;89.93;100580.44;8577873;34;20435;-70
2021/08/29 04:56:00;;;;;;;14.10;7.80;;;;;;;13.02;90.05;100579.44;8576658;34;20142;-72
2021/08/29 05:01:10;;;;;;;11.20;8.43;;;;;;;13.01;89.90;100577.75;8579409;34;20292;-72
2021/08/29 05:06:15;;;;;;;12.95;8.30;;;;;;;13.07;90.12;100592.53;8577029;34;20456;-72
2021/08/29 05:11:18;;;;;;;11.25;7.55;;;;;;;12.82;89.96;100583.91;8576777;34;21404;-72
2021/08/29 05:16:21;;;;;;;10.20;6.95;;;;;;;12.91;90.06;100594.88;8577074;34;20188;-72
2021/08/29 05:21:25;;;;;;;8.52;6.18;;;;;;;12.89;89.86;100599.53;8600670;34;20528;-72
2021/08/29 05:27:06;;;;;;;6.65;5.35;;;;;;;12.79;89.91;100589.56;8601546;34;20728;-72
2021/08/29 05:32:11;;;;;;;7.15;4.65;;;;;;;12.75;89.62;100589.97;8576754;34;20161;-72
2021/08/29 05:37:18;;;;;;;6.00;4.72;;;;;;;12.75;90.18;100581.88;8576526;34;20699;-73
2021/08/29 05:42:41;;;;;;;9.15;4.65;;;;;;;12.83;89.94;100590.16;8600038;34;20189;-72
2021/08/29 05:47:50;;;;;;;5.38;4.13;;;;;;;12.80;90.09;100587.72;8576458;34;20506;-72
2021/08/29 05:52:55;;;;;;;5.38;4.35;;;;;;;12.81;89.94;100582.22;8576068;34;20589;-72
2021/08/29 05:57:58;;;;;;;6.07;4.13;;;;;;;12.79;89.73;100580.63;8575395;34;20519;-72
2021/08/29 06:03:01;;;;;;;5.63;4.43;;;;;;;12.88;90.03;100585.22;8600784;34;21419;-73
2021/08/29 06:08:06;;;;;;;6.30;4.68;;;;;;;12.76;90.10;100580.91;8576012;34;20596;-72
2021/08/29 06:13:10;;;;;;;7.78;4.40;;;;;;;12.71;89.80;100580.44;8577935;34;20189;-72
2021/08/29 06:18:14;;;;;;;4.78;4.18;;;;;;;12.82;90.19;100575.81;8577046;34;20477;-73
2021/08/29 06:23:19;;;;;;;6.78;4.43;;;;;;;13.01;90.61;100572.34;8575987;34;20196;-73
2021/08/29 06:28:42;;;;;;;6.43;3.95;;;;;;;13.01;90.43;100566.97;8598276;34;20760;-73
2021/08/29 06:34:03;;;;;;;3.75;3.30;;;;;;;13.13;89.68;100564.16;8600368;34;20192;-73
2021/08/29 06:39:11;;;;;;;6.38;3.50;;;;;;;13.25;90.16;100560.38;8575664;34;20704;-72
2021/08/29 06:44:15;;;;;;;4.43;3.55;;;;;;;13.29;90.00;100559.09;8575366;34;20181;-72
2021/08/29 06:49:36;;;;;;;3.85;3.42;;;;;;;13.30;89.80;100562.66;8598750;34;20192;-73
2021/08/29 06:54:59;;;;;;;3.30;3.00;;;;;;;13.25;89.96;100568.47;8600205;34;20224;-74
2021/08/29 07:00:25;;;;;;;3.88;3.25;;;;;;;13.23;89.69;100567.75;8586393;34;20444;-73
2021/08/29 07:05:30;;;;;;;3.65;3.10;;;;;;;13.22;89.85;100568.75;8575377;34;20217;-72
2021/08/29 07:10:53;;;;;;;3.15;2.88;;;;;;;13.31;89.87;100564.38;8597982;34;21602;-74
2021/08/29 07:16:15;;;;;;;3.17;2.85;;;;;;;13.41;90.22;100565.25;8600631;34;20153;-73
2021/08/29 07:21:18;;;;;;;2.75;2.53;;;;;;;13.47;90.20;100572.84;8576346;34;20208;-74
2021/08/29 07:26:41;;;;;;;4.10;2.45;;;;;;;13.41;89.89;100565.25;8609947;34;20122;-73
2021/08/29 07:32:03;;;;;;;3.40;2.42;;;;;;;13.40;89.86;100560.88;8623321;34;20193;-72
2021/08/29 07:37:07;;;;;;;2.83;2.58;;;;;;;13.39;90.09;100568.13;8586457;34;20200;-72
2021/08/29 07:42:12;;;;;;;3.10;2.80;;;;;;;13.35;89.91;100553.16;8579109;34;20220;-72
2021/08/29 07:47:15;;;;;;;3.33;3.03;;;;;;;13.43;89.84;100566.84;8577602;34;20199;-72
2021/08/29 07:52:18;;;;;;;4.15;3.53;;;;;;;13.47;90.04;100568.28;8575984;34;20185;-72
2021/08/29 07:57:48;;;;;;;4.43;3.90;;;;;;;13.55;90.17;100570.28;8596541;34;20284;-72
2021/08/29 08:02:58;;;;;;;3.97;3.58;;;;;;;13.94;90.76;100559.53;8583071;34;20229;-71
2021/08/29 08:08:20;;;;;;;4.57;3.88;;;;;;;14.24;89.87;100572.03;8599098;34;20649;-71
2021/08/29 08:13:43;;;;;;;5.00;4.35;;;;;;;14.57;89.41;100572.56;8599735;34;20698;-71
2021/08/29 08:18:46;;;;;;;5.40;4.10;;;;;;;14.71;88.97;100571.25;8578106;34;20662;-72
2021/08/29 08:23:49;;;;;;;5.32;4.20;;;;;;;14.74;87.78;100566.41;8594106;34;20273;-72
2021/08/29 08:29:19;;;;;;;5.43;3.95;;;;;;;14.59;87.73;100567.88;8602195;34;20558;-72
2021/08/29 08:34:41;;;;;;;4.95;4.25;;;;;;;14.45;87.71;100558.34;8600686;34;20682;-71
2021/08/29 08:39:57;;;;;;;4.00;3.60;;;;;;;14.33;87.65;100573.84;8578842;34;20814;-72
2021/08/29 08:45:15;;;;;;;4.75;4.20;;;;;;;14.12;87.38;100576.72;8579015;34;20182;-72
2021/08/29 08:50:39;;;;;;;4.90;4.25;;;;;;;14.21;88.36;100585.81;8563110;34;20231;-72
2021/08/29 08:56:12;;;;;;;6.30;4.68;;;;;;;14.29;87.09;100576.97;8590775;34;20156;-73
2021/08/29 09:01:35;;;;;;;7.43;4.90;;;;;;;14.30;86.20;100582.25;8603130;34;20142;-71
2021/08/29 09:06:56;;;;;;;8.48;5.75;;;;;;;14.26;86.59;100585.38;8577282;34;20697;-71
2021/08/29 09:12:07;;;;;;;7.60;6.05;;;;;;;14.35;87.08;100592.63;8577993;34;20852;-71
2021/08/29 09:17:27;;;;;;;8.57;6.18;;;;;;;14.72;85.54;100595.44;8577640;34;20150;-71
2021/08/29 09:22:32;;;;;;;7.28;6.18;;;;;;;15.06;86.14;100578.69;8577673;34;20185;-71
2021/08/29 09:28:16;;;;;;;8.38;6.20;;;;;;;14.97;85.77;100587.66;8318674;35;20198;-71
2021/08/29 09:33:31;;;;;;;7.60;5.70;;;;;;;15.10;86.58;100584.63;8477190;34;20642;-72
2021/08/29 09:38:41;;;;;;;7.25;5.05;;;;;;;15.67;86.37;100583.50;8542937;34;20201;-72
2021/08/29 09:44:11;;;;;;;6.25;4.88;;;;;;;15.96;85.28;100587.00;8488889;34;20141;-72
2021/08/29 09:49:23;;;;;;;6.80;4.57;;;;;;;15.85;83.70;100594.38;8519916;34;20264;-72
2021/08/29 09:54:43;;;;;;;4.95;4.35;;;;;;;15.66;84.25;100589.94;8573562;34;21222;-71
2021/08/29 10:00:10;;;;;;;4.90;3.90;;;;;;;15.45;82.90;100597.47;8598028;34;20149;-71
2021/08/29 10:05:20;;;;;;;4.53;3.97;;;;;;;15.08;82.95;100587.47;8574410;34;20188;-71
2021/08/29 10:10:28;;;;;;;4.18;3.78;;;;;;;14.98;83.93;100592.09;8575388;34;20177;-73
2021/08/29 10:15:36;;;;;;;4.13;3.72;;;;;;;15.05;84.95;100593.19;8575945;34;20242;-72
2021/08/29 10:21:00;;;;;;;4.88;3.65;;;;;;;14.73;81.54;100591.75;8600209;34;20635;-72
2021/08/29 10:26:18;;;;;;;4.20;3.55;;;;;;;14.81;84.20;100591.03;8575097;34;20228;-72
2021/08/29 10:31:37;;;;;;;4.70;3.97;;;;;;;15.21;85.39;100584.44;8600005;34;20196;-72
2021/08/29 10:36:56;;;;;;;4.90;4.07;;;;;;;15.79;83.98;100583.28;8575771;34;20203;-72
2021/08/29 10:42:19;;;;;;;5.13;4.50;;;;;;;16.18;84.17;100574.81;8599496;34;20192;-73
2021/08/29 10:47:47;;;;;;;6.00;4.57;;;;;;;16.90;80.82;100576.41;8547502;34;20191;-72
2021/08/29 10:52:57;;;;;;;5.32;4.50;;;;;;;17.12;80.89;100574.16;8598988;34;20187;-72
2021/08/29 10:58:04;;;;;;;4.97;4.30;;;;;;;16.67;80.51;100572.53;8574247;34;20188;-72
2021/08/29 11:03:27;;;;;;;5.95;4.53;;;;;;;18.04;79.43;100572.41;8577534;34;20626;-71
2021/08/29 11:09:45;;;;;;;4.97;4.10;;;;;;;18.68;72.42;100567.97;8551505;34;20287;-71
2021/08/29 11:14:53;;;;;;;8.40;6.47;;;;;;;17.75;71.26;100567.44;8571928;34;20280;-72
2021/08/29 11:20:17;;;;;;;8.30;6.30;;;;;;;17.22;74.14;100585.75;8579258;34;20284;-72
2021/08/29 11:25:35;;;;;;;9.52;7.32;;;;;;;16.96;74.74;100575.75;8580266;34;20177;-72
2021/08/29 11:31:52;;;;;;;10.00;8.88;;;;;;;16.63;76.49;100579.28;8603768;34;20193;-72
2021/08/29 11:37:23;;;;;;;9.52;7.00;;;;;;;16.13;77.82;100587.00;8579166;34;20247;-72
2021/08/29 11:43:20;;;;;;;10.90;7.30;;;;;;;16.05;78.63;100580.66;8578868;34;20203;-72
2021/08/29 11:48:30;;;;;;;8.57;6.05;;;;;;;16.07;78.31;100571.38;8601669;34;20203;-72
2021/08/29 11:53:47;;;;;;;10.27;6.07;;;;;;;15.98;77.68;100577.72;8578491;34;20185;-71
2021/08/29 11:58:53;;;;;;;7.93;5.72;;;;;;;15.83;79.25;100580.13;8578304;34;20224;-71
2021/08/29 12:03:58;;;;;;;8.80;6.10;;;;;;;15.72;78.15;100582.19;8576731;34;20587;-71
2021/08/29 12:09:22;;;;;;;10.55;7.50;;;;;;;15.61;78.94;100575.16;8576766;34;20712;-70
2021/08/29 12:14:46;;;;;;;12.05;7.75;;;;;;;15.68;80.21;100566.22;8598102;34;20706;-72
2021/08/29 12:20:10;;;;;;;14.15;8.05;;;;;;;16.01;78.45;100571.97;8605110;34;20673;-71
2021/08/29 12:25:32;;;;;;;12.50;8.27;;;;;;;16.05;78.21;100576.09;8602344;34;20181;-71
2021/08/29 12:30:38;;;;;;;12.13;8.07;;;;;;;15.92;77.90;100571.06;8578781;34;20666;-71
2021/08/29 12:35:43;;;;;;;11.90;7.25;;;;;;;16.66;77.94;100570.84;8578289;34;20161;-71
2021/08/29 12:40:49;;;;;;;10.00;6.65;;;;;;;16.95;74.21;100570.47;8579614;34;20185;-71
2021/08/29 12:45:54;;;;;;;9.95;6.95;;;;;;;16.65;74.69;100563.69;8578490;34;20188;-71
2021/08/29 12:51:02;;;;;;;10.93;7.47;;;;;;;16.85;74.25;100565.19;8602124;34;20278;-72
2021/08/29 12:56:06;;;;;;;9.10;6.22;;;;;;;16.64;75.01;100556.56;8601904;34;20181;-71
2021/08/29 13:01:10;;;;;;;10.68;6.82;;;;;;;16.82;75.46;100568.22;8601638;34;20189;-72
2021/08/29 13:06:19;;;;;;;10.30;6.28;;;;;;;17.09;74.34;100563.63;8603625;34;20196;-74
2021/08/29 13:11:24;;;;;;;9.85;6.30;;;;;;;17.14;73.79;100561.28;8603178;34;20158;-70
2021/08/29 13:16:40;;;;;;;8.48;6.47;;;;;;;16.97;73.38;100554.91;8601210;34;20164;-70
2021/08/29 13:21:43;;;;;;;8.10;6.30;;;;;;;17.09;73.76;100567.19;8601892;34;20503;-72
2021/08/29 13:26:46;;;;;;;9.68;7.15;;;;;;;17.12;73.62;100555.16;8600791;34;20299;-71
2021/08/29 13:31:58;;;;;;;9.23;6.72;;;;;;;17.25;73.43;100551.00;8601771;34;20744;-71
2021/08/29 13:37:03;;;;;;;9.30;6.30;;;;;;;16.87;73.20;100543.34;8601562;34;20276;-72
2021/08/29 13:42:22;;;;;;;8.85;5.90;;;;;;;16.78;74.55;100547.84;8600928;34;20461;-71
2021/08/29 13:47:27;;;;;;;9.10;6.75;;;;;;;16.62;74.88;100545.91;8600600;34;20284;-71
2021/08/29 13:52:38;;;;;;;8.48;6.50;;;;;;;16.36;75.44;100554.00;8599624;34;20561;-71
2021/08/29 13:57:46;;;;;;;9.35;6.88;;;;;;;16.26;76.08;100558.66;8598128;34;20161;-71
2021/08/29 14:02:51;;;;;;;8.73;6.15;;;;;;;16.31;77.12;100551.75;8598314;34;20730;-71
2021/08/29 14:07:54;;;;;;;9.63;6.90;;;;;;;16.45;75.98;100552.19;8594428;34;20486;-72
2021/08/29 14:12:57;;;;;;;12.80;7.25;;;;;;;16.54;75.40;100553.97;8598680;34;20962;-71
2021/08/29 14:18:03;;;;;;;8.48;5.47;;;;;;;16.76;75.82;100555.31;8597866;34;20181;-71
2021/08/29 14:23:06;;;;;;;6.47;4.88;;;;;;;16.86;74.88;100555.19;8598258;34;20189;-71
2021/08/29 14:28:09;;;;;;;6.70;4.93;;;;;;;16.73;74.94;100539.31;8597466;34;20238;-71
2021/08/29 14:33:14;;;;;;;6.55;5.15;;;;;;;16.72;75.09;100546.63;8597996;34;20860;-71
2021/08/29 14:38:17;;;;;;;6.68;5.07;;;;;;;16.50;75.85;100550.72;8593485;34;20160;-72
2021/08/29 14:43:20;;;;;;;6.72;4.78;;;;;;;16.39;76.57;100542.00;8595835;34;20169;-71
2021/08/29 14:48:24;;;;;;;4.95;4.43;;;;;;;16.53;76.45;100544.13;8591728;34;20217;-71
2021/08/29 14:53:27;;;;;;;7.97;5.17;;;;;;;16.86;76.07;100544.31;8565679;34;20668;-71
2021/08/29 14:58:30;;;;;;;6.90;5.03;;;;;;;17.06;74.81;100544.91;8576838;34;20732;-71
2021/08/29 15:03:35;;;;;;;5.43;4.63;;;;;;;17.04;74.63;100553.25;8589279;34;20327;-71
2021/08/29 15:08:38;;;;;;;5.00;4.38;;;;;;;16.95;74.73;100546.06;8586079;34;20243;-71
2021/08/29 15:13:41;;;;;;;7.38;4.88;;;;;;;16.92;74.52;100554.53;8591116;34;20191;-71
2021/08/29 15:18:46;;;;;;;5.13;4.25;;;;;;;16.95;75.34;100546.94;8592405;34;20294;-71
2021/08/29 15:23:49;;;;;;;6.90;4.90;;;;;;;16.91;76.56;100542.81;8594458;34;20283;-71
2021/08/29 15:28:52;;;;;;;5.88;4.90;;;;;;;17.38;76.22;100545.09;8597846;34;20185;-70
2021/08/29 15:33:56;;;;;;;5.45;4.70;;;;;;;17.53;75.05;100529.00;8598763;34;20195;-71
2021/08/29 15:38:59;;;;;;;5.47;4.75;;;;;;;17.58;74.93;100528.50;8574728;33;20419;-71
2021/08/29 15:44:02;;;;;;;6.22;4.28;;;;;;;17.12;76.81;100530.72;8599685;34;20285;-71
2021/08/29 15:49:07;;;;;;;6.47;4.90;;;;;;;16.45;80.88;100530.50;8601462;34;20164;-72
2021/08/29 15:54:10;;;;;;;5.80;4.70;;;;;;;16.11;83.70;100515.84;8603414;34;20181;-72
2021/08/29 15:59:14;;;;;;;8.68;4.55;;;;;;;16.27;84.49;100515.16;8603234;34;22168;-71
2021/08/29 16:04:19;;;;;;;5.85;4.65;;;;;;;16.32;84.08;100515.53;8603310;34;20236;-71
2021/08/29 16:09:22;;;;;;;7.15;4.40;;;;;;;16.13;83.20;100508.41;8603538;34;20681;-72
2021/08/29 16:14:25;;;;;;;7.00;5.30;;;;;;;16.11;84.99;100501.44;8603267;34;20280;-73
2021/08/29 16:19:29;;;;;;;5.68;4.45;;;;;;;15.93;85.20;100515.88;8603594;34;20746;-72
2021/08/29 16:24:32;;;;;;;5.93;4.82;;;;;;;15.70;85.69;100515.47;8602362;34;20207;-72
2021/08/29 16:29:36;;;;;;;0.35;0.35;;;;;;;15.29;87.37;100524.16;8602157;34;20666;-72
2021/08/29 16:34:40;;;;;;;0.30;0.30;;;;;;;14.92;90.82;100514.22;8602441;34;20234;-71
2021/08/29 16:39:43;;;;;;;0.50;0.50;;;;;;;14.98;91.12;100524.47;8604377;34;22937;-71
2021/08/29 16:44:46;;;;;;;0.77;0.47;;;;;;;14.81;91.06;100528.81;8602109;34;20588;-72
2021/08/29 16:49:51;;;;;;;0.30;0.30;;;;;;;14.89;91.20;100534.34;8601937;34;21044;-72
2021/08/29 16:54:54;;;;;;;4.38;3.22;;;;;;;15.01;90.88;100538.53;8602498;34;20260;-72
2021/08/29 16:59:59;;;;;;;5.50;4.00;;;;;;;15.02;90.77;100542.94;8601995;34;21468;-72
2021/08/29 17:05:04;;;;;;;5.03;3.60;;;;;;;15.03;90.71;100544.66;8601452;34;20205;-72
2021/08/29 17:10:08;;;;;;;5.72;4.38;;;;;;;15.02;90.48;100539.38;8601628;34;20472;-72
2021/08/29 17:15:12;;;;;;;4.82;4.10;;;;;;;15.00;90.79;100546.78;8601160;34;20129;-72
2021/08/29 17:20:17;;;;;;;5.53;4.28;;;;;;;14.99;90.89;100548.66;8601329;34;20258;-71
2021/08/29 17:25:20;;;;;;;6.10;4.63;;;;;;;15.01;90.85;100545.81;8601063;34;20242;-71
2021/08/29 17:30:24;;;;;;;6.43;4.70;;;;;;;14.96;90.74;100558.94;8601277;34;20552;-72
2021/08/29 17:35:29;;;;;;;4.88;4.38;;;;;;;14.90;90.74;100564.94;8602031;34;20161;-72
2021/08/29 17:40:32;;;;;;;7.45;4.93;;;;;;;14.93;90.62;100568.19;8603786;34;20574;-72
2021/08/29 17:45:35;;;;;;;7.85;5.18;;;;;;;14.86;90.29;100572.47;8603465;34;20236;-72
2021/08/29 17:50:40;;;;;;;9.77;5.55;;;;;;;14.75;90.29;100578.06;8604082;34;20725;-72
2021/08/29 17:55:43;;;;;;;9.73;5.90;;;;;;;14.77;90.17;100590.44;8605864;34;20259;-71
2021/08/29 18:00:46;;;;;;;7.85;6.00;;;;;;;14.85;90.34;100597.81;8582158;34;20192;-71
2021/08/29 18:05:50;;;;;;;12.10;6.45;;;;;;;14.85;90.59;100605.94;8606705;34;20212;-72
2021/08/29 18:10:54;;;;;;;13.18;7.85;;;;;;;14.86;90.26;100601.38;8605579;34;20258;-72
2021/08/29 18:15:57;;;;;;;10.32;6.93;;;;;;;14.82;90.20;100608.94;8604003;34;21466;-71
2021/08/29 18:21:03;;;;;;;10.68;6.85;;;;;;;14.82;90.21;100614.34;8604170;34;20188;-72
2021/08/29 18:26:07;;;;;;;12.50;8.25;;;;;;;14.68;89.59;100620.22;8601275;34;20918;-72
2021/08/29 18:31:10;;;;;;;12.38;8.65;;;;;;;14.79;89.98;100631.72;8601021;34;20234;-72
2021/08/29 18:36:16;;;;;;;12.98;7.88;;;;;;;14.82;90.47;100626.00;8600093;34;20582;-72
2021/08/29 18:41:19;;;;;;;15.07;9.18;;;;;;;14.82;90.29;100636.81;8575816;34;20285;-71
2021/08/29 18:46:22;;;;;;;12.82;8.75;;;;;;;14.82;90.05;100644.09;8599660;34;20148;-71
2021/08/29 18:51:27;;;;;;;13.77;8.90;;;;;;;14.79;90.25;100647.09;8600791;34;20133;-71
2021/08/29 18:56:30;;;;;;;13.35;8.85;;;;;;;14.78;90.08;100648.94;8599344;34;20157;-71
2021/08/29 19:01:33;;;;;;;16.45;8.93;;;;;;;14.76;89.71;100658.19;8600507;34;20873;-71
2021/08/29 19:06:38;;;;;;;13.98;9.27;;;;;;;14.80;90.32;100660.44;8599453;34;20185;-71
2021/08/29 19:11:42;;;;;;;13.77;9.05;;;;;;;14.82;90.08;100663.88;8599830;34;20130;-71
2021/08/29 19:16:45;;;;;;;12.60;8.93;;;;;;;14.86;90.34;100672.53;8599238;34;21488;-71
2021/08/29 19:21:49;;;;;;;13.75;9.10;;;;;;;14.89;90.35;100666.00;8600366;34;20201;-71
2021/08/29 19:26:53;;;;;;;13.57;8.70;;;;;;;14.91;90.20;100666.69;8604192;34;20294;-71
2021/08/29 19:31:56;;;;;;;12.60;9.63;;;;;;;14.90;90.12;100667.72;8604017;34;20430;-71
2021/08/29 19:37:00;;;;;;;18.15;10.48;;;;;;;14.85;90.27;100665.44;8603511;34;20541;-71
2021/08/29 19:42:04;;;;;;;17.02;9.95;;;;;;;14.86;90.00;100669.00;8603442;34;20188;-70
2021/08/29 19:47:07;;;;;;;18.30;10.73;;;;;;;14.85;89.85;100664.59;8602527;34;20178;-70
2021/08/29 19:52:11;;;;;;;15.98;10.23;;;;;;;14.86;90.62;100677.09;8603270;34;20181;-70
2021/08/29 19:57:14;;;;;;;16.48;10.52;;;;;;;14.81;90.09;100682.97;8602583;34;20459;-70
2021/08/29 20:02:17;;;;;;;19.33;12.13;;;;;;;14.79;89.93;100674.97;8603229;34;20790;-71
2021/08/29 20:07:22;;;;;;;18.88;12.63;;;;;;;14.84;90.35;100677.25;8588663;34;20193;-70
2021/08/29 20:12:26;;;;;;;18.90;13.23;;;;;;;14.85;90.30;100683.53;8603172;34;21010;-71
2021/08/29 20:17:30;;;;;;;21.15;13.70;;;;;;;14.81;89.91;100673.00;8578275;34;20216;-70
2021/08/29 20:22:34;;;;;;;20.67;14.23;;;;;;;14.82;90.11;100666.56;8601208;34;20197;-71
2021/08/29 20:27:38;;;;;;;24.92;14.98;;;;;;;14.85;90.18;100670.84;8600748;34;20177;-71
2021/08/29 20:32:41;;;;;;;25.20;15.77;;;;;;;14.82;90.07;100677.38;8601447;34;20192;-70
2021/08/29 20:37:45;;;;;;;24.60;15.32;;;;;;;14.80;89.98;100681.25;8601824;34;20383;-71
2021/08/29 20:42:48;;;;;;;23.27;14.20;;;;;;;14.73;89.87;100675.56;8603293;34;20215;-71
2021/08/29 20:47:52;;;;;;;21.92;13.57;;;;;;;14.72;89.75;100673.84;8601943;34;22865;-70
2021/08/29 20:52:56;;;;;;;23.67;14.18;;;;;;;14.65;89.59;100675.44;8602176;34;20244;-70
2021/08/29 20:57:59;;;;;;;23.27;14.10;;;;;;;14.64;89.51;100681.81;8602980;34;20150;-71
2021/08/29 21:03:02;;;;;;;23.45;14.48;;;;;;;14.68;89.64;100672.44;8602586;34;20184;-71
2021/08/29 21:08:07;;;;;;;24.00;14.43;;;;;;;14.67;89.82;100681.53;8601969;34;20193;-70
2021/08/29 21:13:10;;;;;;;21.88;14.73;;;;;;;14.54;89.28;100681.84;8602060;34;20157;-70
2021/08/29 21:18:14;;;;;;;24.35;15.02;;;;;;;14.59;89.32;100690.38;8601035;34;20196;-70
2021/08/29 21:23:18;;;;;;;23.48;14.77;;;;;;;14.63;89.43;100685.53;8600684;34;20320;-70
2021/08/29 21:28:21;;;;;;;23.35;15.10;;;;;;;14.60;89.38;100689.38;8599418;34;20177;-70
2021/08/29 21:33:24;;;;;;;27.40;14.90;;;;;;;14.56;89.74;100687.09;8599948;34;20131;-70
2021/08/29 21:38:28;;;;;;;25.20;15.90;;;;;;;14.53;88.95;100684.69;8599539;34;21670;-70
2021/08/29 21:43:31;;;;;;;25.00;14.75;;;;;;;14.54;89.18;100681.84;8599950;34;20226;-70
2021/08/29 21:48:34;;;;;;;29.42;16.63;;;;;;;14.50;89.19;100684.97;8598534;34;20219;-71
2021/08/29 21:53:39;;;;;;;25.63;15.30;;;;;;;14.46;89.06;100686.25;8599684;34;20224;-71
2021/08/29 21:58:42;;;;;;;25.65;15.50;;;;;;;14.52;89.25;100681.13;8600381;34;21565;-71
2021/08/29 22:03:45;;;;;;;24.55;15.27;;;;;;;14.47;88.94;100690.66;8600294;34;20225;-71
2021/08/29 22:08:49;;;;;;;27.95;16.63;;;;;;;14.48;89.07;100684.25;8599338;34;20479;-72
2021/08/29 22:13:52;;;;;;;26.20;15.20;;;;;;;14.52;88.82;100674.88;8598927;34;20363;-71
2021/08/29 22:18:55;;;;;;;26.30;15.65;;;;;;;14.49;88.49;100678.72;8598873;34;20737;-72
2021/08/29 22:24:00;;;;;;;23.48;14.23;;;;;;;14.47;88.63;100685.25;8599410;34;20189;-71
2021/08/29 22:29:04;;;;;;;27.20;14.43;;;;;;;14.48;89.10;100678.84;8599540;34;20813;-71
2021/08/29 22:34:07;;;;;;;25.40;14.80;;;;;;;14.45;88.75;100688.09;8573688;34;20211;-70
2021/08/29 22:39:13;;;;;;;24.52;14.75;;;;;;;14.47;89.06;100679.84;8597512;34;20614;-71
2021/08/29 22:44:16;;;;;;;28.17;14.30;;;;;;;14.48;89.00;100686.94;8597118;34;20482;-72
2021/08/29 22:49:20;;;;;;;26.88;15.25;;;;;;;14.43;88.87;100687.41;8597710;34;20428;-71
2021/08/29 22:54:24;;;;;;;22.30;13.20;;;;;;;14.43;88.86;100681.16;8597136;34;20209;-72
2021/08/29 22:59:27;;;;;;;23.20;14.13;;;;;;;14.37;88.78;100686.09;8597354;34;20554;-72
2021/08/29 23:04:30;;;;;;;25.70;15.05;;;;;;;14.29;88.74;100679.66;8597502;34;20134;-71
2021/08/29 23:09:35;;;;;;;26.58;15.88;;;;;;;14.38;88.51;100687.81;8598486;34;20218;-72
2021/08/29 23:14:38;;;;;;;28.20;15.57;;;;;;;14.38;88.51;100674.31;8598761;34;20185;-72
2021/08/29 23:19:41;;;;;;;26.75;15.80;;;;;;;14.36;88.51;100684.34;8599670;34;20884;-71
2021/08/29 23:24:45;;;;;;;25.92;15.43;;;;;;;14.37;88.42;100677.09;8599099;34;20272;-71
2021/08/29 23:29:48;;;;;;;28.90;17.17;;;;;;;14.34;88.25;100666.56;8598840;34;20216;-72
2021/08/29 23:34:51;;;;;;;29.38;16.27;;;;;;;14.37;88.23;100672.56;8598367;34;20242;-71
2021/08/29 23:39:55;;;;;;;29.90;17.08;;;;;;;14.33;88.07;100664.88;8598045;34;20295;-72
2021/08/29 23:44:58;;;;;;;27.92;16.92;;;;;;;14.32;88.31;100676.69;8598246;34;20157;-72